Time;durP1;ratioP1;P1;durP2;ratioP2;P2;SDS_P1;SDS_P2;PMS_P1;PMS_P2;Temp;Humidity;BMP_temperature;BMP_pressure;BME280_temperature;BME280_humidity;BME280_pressure;Samples;Min_cycle;Max_cycle;Signal;HPM_P1;HPM_P2
2021/03/27 00:00:19;;;;;;;100.63;39.03;;;;;;;6.93;56.98;99104.07;114547;1193;64359;-84
2021/03/27 00:03:32;;;;;;;99.83;40.80;;;;;;;6.93;57.03;99099.62;114399;1193;65401;-86
2021/03/27 00:06:12;;;;;;;87.05;35.25;;;;;;;6.95;57.47;99094.24;114462;1192;64628;-83
2021/03/27 00:09:03;;;;;;;73.60;31.07;;;;;;;6.93;57.52;99091.66;114398;1193;64477;-86
2021/03/27 00:11:40;;;;;;;56.43;24.57;;;;;;;6.95;57.16;99089.79;114442;1193;64349;-86
2021/03/27 00:14:15;;;;;;;56.57;24.33;;;;;;;7.07;57.46;99096.20;114710;1191;64356;-84
2021/03/27 00:16:55;;;;;;;52.30;22.07;;;;;;;7.14;57.57;99084.28;114518;1193;64471;-88
2021/03/27 00:19:37;;;;;;;46.80;20.67;;;;;;;7.18;57.03;99084.94;114310;1193;64879;-84
2021/03/27 00:22:27;;;;;;;46.30;20.83;;;;;;;7.21;57.38;99084.78;114858;1192;64330;-86
2021/03/27 00:25:19;;;;;;;50.27;20.17;;;;;;;7.24;57.23;99088.09;114442;1193;64448;-88
2021/03/27 00:28:27;;;;;;;44.60;21.07;;;;;;;7.26;56.76;99088.89;114859;1192;64346;-85
2021/03/27 00:31:13;;;;;;;51.15;21.40;;;;;;;7.26;56.96;99075.61;115091;1193;64388;-85
2021/03/27 00:33:51;;;;;;;46.35;22.15;;;;;;;7.26;57.12;99072.09;114571;1193;64458;-86
2021/03/27 00:36:26;;;;;;;47.97;21.10;;;;;;;7.24;57.35;99072.16;114705;1193;64363;-85
2021/03/27 00:39:03;;;;;;;49.23;20.97;;;;;;;7.25;57.14;99070.36;114606;1192;64416;-85
2021/03/27 00:41:40;;;;;;;50.50;23.00;;;;;;;7.20;57.49;99067.99;114928;1193;64371;-85
2021/03/27 00:44:13;;;;;;;48.83;22.10;;;;;;;7.18;57.06;99069.86;114607;1193;64301;-85
2021/03/27 00:46:43;;;;;;;51.47;20.77;;;;;;;7.23;57.37;99067.80;114826;1192;64547;-84
2021/03/27 00:49:21;;;;;;;45.17;18.93;;;;;;;7.25;57.22;99060.63;114538;1193;64430;-86
2021/03/27 00:51:55;;;;;;;42.13;18.73;;;;;;;7.32;57.81;99053.14;114586;1193;64442;-89
2021/03/27 00:54:30;;;;;;;44.87;17.57;;;;;;;7.35;57.63;99052.95;114556;1193;64420;-88
2021/03/27 00:57:15;;;;;;;42.17;17.87;;;;;;;7.45;57.51;99039.99;114736;1193;64448;-87
2021/03/27 00:59:51;;;;;;;40.35;18.00;;;;;;;7.52;56.99;99043.98;114684;1192;64371;-88
2021/03/27 01:02:22;;;;;;;40.50;17.15;;;;;;;7.63;57.76;99038.01;114694;1192;64362;-87
2021/03/27 01:05:18;;;;;;;39.35;16.50;;;;;;;7.67;57.24;99034.23;114946;1193;64375;-85
2021/03/27 01:08:24;;;;;;;37.73;16.33;;;;;;;7.65;57.34;99029.02;114770;1193;64343;-86
2021/03/27 01:11:29;;;;;;;37.05;16.20;;;;;;;7.73;57.33;99032.05;114679;1193;64343;-87
2021/03/27 01:14:01;;;;;;;37.13;16.60;;;;;;;7.74;56.90;99014.30;114980;1192;64375;-84
2021/03/27 01:16:32;;;;;;;39.50;15.20;;;;;;;7.79;57.10;99021.05;114953;1193;64455;-88
2021/03/27 01:19:07;;;;;;;37.95;16.50;;;;;;;7.92;57.12;99014.98;114676;1193;64383;-85
2021/03/27 01:21:38;;;;;;;45.75;18.38;;;;;;;8.00;56.94;99016.20;114685;1193;64429;-86
2021/03/27 01:24:10;;;;;;;46.23;19.57;;;;;;;8.06;56.83;99010.50;114518;1193;64334;-85
2021/03/27 01:26:52;;;;;;;47.15;20.45;;;;;;;8.10;56.85;99005.86;114576;1193;64462;-85
2021/03/27 01:29:42;;;;;;;48.23;18.93;;;;;;;8.11;56.82;99002.24;114506;1193;64350;-86
2021/03/27 01:32:31;;;;;;;41.10;18.80;;;;;;;8.11;57.05;99002.24;114647;1193;64426;-86
2021/03/27 01:35:15;;;;;;;38.60;17.25;;;;;;;8.04;56.97;98998.27;115200;1193;64343;-86
2021/03/27 01:37:57;;;;;;;35.50;17.43;;;;;;;7.99;56.79;98992.37;114576;1192;64455;-88
2021/03/27 01:41:07;;;;;;;37.23;16.13;;;;;;;8.07;57.15;98987.41;114536;1193;64487;-90
2021/03/27 01:43:49;;;;;;;38.30;16.27;;;;;;;8.11;57.02;98978.30;114494;1193;64378;-87
2021/03/27 01:46:53;;;;;;;35.70;16.63;;;;;;;8.23;57.00;98979.34;114474;1193;64346;-85
2021/03/27 01:49:22;;;;;;;34.30;16.07;;;;;;;8.34;57.15;98977.70;114864;1193;64353;-87
2021/03/27 01:52:07;;;;;;;38.70;16.10;;;;;;;8.46;56.77;98980.53;114547;1193;64374;-85
2021/03/27 01:54:58;;;;;;;37.10;15.93;;;;;;;8.55;57.05;98980.81;114590;1192;64359;-90
2021/03/27 01:57:41;;;;;;;37.15;15.75;;;;;;;8.55;56.93;98978.15;114563;1193;64368;-89
2021/03/27 02:00:17;;;;;;;34.97;15.77;;;;;;;8.56;57.03;98977.19;114852;1193;64439;-85
2021/03/27 02:02:51;;;;;;;40.77;18.13;;;;;;;8.51;56.95;98978.44;114571;1192;64474;-87
2021/03/27 02:05:30;;;;;;;37.10;16.63;;;;;;;8.48;56.63;98962.69;114548;1193;64394;-89
2021/03/27 02:08:12;;;;;;;35.80;16.57;;;;;;;8.47;56.75;98969.81;114898;1193;64563;-86
2021/03/27 02:11:05;;;;;;;32.77;15.77;;;;;;;8.48;56.98;98968.01;114750;1193;64359;-84
2021/03/27 02:14:01;;;;;;;36.67;16.50;;;;;;;8.44;56.47;98963.83;114479;1193;64714;-87
2021/03/27 02:16:45;;;;;;;41.53;17.90;;;;;;;8.38;56.55;98967.73;114519;1193;64372;-87
2021/03/27 02:19:24;;;;;;;39.20;18.85;;;;;;;8.33;56.77;98967.14;114589;1192;64479;-86
2021/03/27 02:22:06;;;;;;;42.97;19.70;;;;;;;8.32;56.75;98968.09;114610;1192;64358;-84
2021/03/27 02:24:52;;;;;;;43.70;19.23;;;;;;;8.32;56.92;98963.63;114485;1193;64371;-86
2021/03/27 02:27:18;;;;;;;42.00;19.68;;;;;;;8.32;56.63;98958.30;114917;1193;64449;-84
2021/03/27 02:30:09;;;;;;;43.13;18.13;;;;;;;8.36;56.45;98964.33;114608;1193;64330;-84
2021/03/27 02:32:43;;;;;;;41.60;18.40;;;;;;;8.38;56.64;98959.75;114636;1193;64362;-85
2021/03/27 02:35:16;;;;;;;36.97;16.77;;;;;;;8.37;56.75;98966.88;115012;1192;64548;-84
2021/03/27 02:38:05;;;;;;;38.53;16.70;;;;;;;8.36;56.73;98962.52;114741;1193;64419;-84
2021/03/27 02:40:35;;;;;;;36.60;17.03;;;;;;;8.34;56.62;98960.89;114660;1193;64343;-85
2021/03/27 02:43:25;;;;;;;39.70;16.25;;;;;;;8.30;56.86;98960.22;114676;1193;64359;-84
2021/03/27 02:46:20;;;;;;;39.70;15.73;;;;;;;8.31;56.74;98961.06;114468;1193;64378;-82
2021/03/27 02:48:58;;;;;;;35.50;16.20;;;;;;;8.35;56.94;98951.95;114772;1192;64359;-84
2021/03/27 02:52:01;;;;;;;38.27;16.83;;;;;;;8.36;56.40;98954.53;114693;1193;64451;-84
2021/03/27 02:54:44;;;;;;;40.95;18.35;;;;;;;8.36;56.77;98957.19;114647;1193;64439;-84
2021/03/27 02:58:04;;;;;;;43.17;17.83;;;;;;;8.32;56.39;98947.66;114989;1193;64215;-83
2021/03/27 03:00:56;;;;;;;42.63;17.17;;;;;;;8.34;56.59;98956.42;114677;1192;64386;-83
2021/03/27 03:03:38;;;;;;;36.90;16.67;;;;;;;8.32;56.48;98954.79;114690;1193;64468;-83
2021/03/27 03:06:24;;;;;;;36.97;16.30;;;;;;;8.34;56.59;98942.27;114590;1193;64289;-84
2021/03/27 03:09:18;;;;;;;40.45;17.00;;;;;;;8.33;56.63;98944.07;114651;1193;64244;-88
2021/03/27 03:11:53;;;;;;;35.60;16.97;;;;;;;8.32;56.56;98942.34;115004;1191;64364;-83
2021/03/27 03:14:32;;;;;;;33.90;16.55;;;;;;;8.25;56.75;98942.84;114887;1193;64362;-85
2021/03/27 03:17:14;;;;;;;41.65;19.15;;;;;;;8.17;56.84;98940.67;114520;1192;64452;-85
2021/03/27 03:19:51;;;;;;;43.50;18.80;;;;;;;8.15;56.50;98945.25;114962;1193;64448;-84
2021/03/27 03:22:36;;;;;;;40.13;18.17;;;;;;;8.12;57.02;98940.96;114655;1193;64353;-84
2021/03/27 03:25:11;;;;;;;44.65;18.25;;;;;;;8.16;56.94;98941.63;114937;1193;64379;-83
2021/03/27 03:27:41;;;;;;;40.90;17.40;;;;;;;8.21;56.59;98947.52;114717;1193;64285;-85
2021/03/27 03:30:24;;;;;;;40.00;18.60;;;;;;;8.28;56.69;98943.51;114658;1193;64452;-87
2021/03/27 03:33:06;;;;;;;38.80;17.55;;;;;;;8.29;56.83;98937.23;114597;1192;64481;-83
2021/03/27 03:36:11;;;;;;;39.85;17.75;;;;;;;8.25;56.45;98945.50;114562;1193;64298;-83
2021/03/27 03:39:00;;;;;;;42.83;18.97;;;;;;;8.21;57.04;98939.54;114720;1193;64346;-85
2021/03/27 03:41:43;;;;;;;42.57;18.43;;;;;;;8.21;56.83;98939.54;114653;1193;64435;-82
2021/03/27 03:44:48;;;;;;;37.33;17.07;;;;;;;8.17;56.80;98940.67;114633;1193;64468;-85
2021/03/27 03:47:37;;;;;;;41.00;18.57;;;;;;;8.15;56.37;98939.93;115252;1192;64391;-85
2021/03/27 03:50:10;;;;;;;39.65;18.05;;;;;;;8.15;56.54;98937.27;114983;1193;64323;-84
2021/03/27 03:52:59;;;;;;;38.03;17.93;;;;;;;8.15;56.53;98933.76;114595;1193;64391;-84
2021/03/27 03:55:59;;;;;;;40.85;17.75;;;;;;;8.08;56.67;98926.17;114615;1193;65623;-85
2021/03/27 03:58:40;;;;;;;39.20;17.40;;;;;;;8.05;56.81;98917.52;114909;1192;64490;-83
2021/03/27 04:01:06;;;;;;;41.53;18.00;;;;;;;7.94;56.29;98920.00;114906;1192;64362;-83
2021/03/27 04:03:43;;;;;;;33.87;16.93;;;;;;;7.82;56.98;98911.88;114764;1192;64825;-83
2021/03/27 04:06:18;;;;;;;36.50;16.60;;;;;;;7.75;56.97;98914.99;114567;1193;64458;-84
2021/03/27 04:09:11;;;;;;;34.13;16.63;;;;;;;7.77;56.76;98911.30;114859;1193;64362;-84
2021/03/27 04:11:58;;;;;;;38.43;17.70;;;;;;;7.84;57.15;98904.64;114619;1193;64407;-84
2021/03/27 04:15:03;;;;;;;40.07;17.43;;;;;;;7.85;56.54;98905.50;114847;1192;64404;-83
2021/03/27 04:17:50;;;;;;;41.43;19.10;;;;;;;7.85;56.67;98895.72;115313;1192;64295;-84
2021/03/27 04:20:29;;;;;;;42.13;18.20;;;;;;;7.96;56.94;98908.34;114587;1193;64269;-83
2021/03/27 04:23:06;;;;;;;41.60;17.30;;;;;;;8.03;56.55;98908.80;114501;1193;64458;-83
2021/03/27 04:25:37;;;;;;;35.73;17.57;;;;;;;8.01;56.54;98902.70;114538;1193;64449;-85
2021/03/27 04:28:10;;;;;;;37.43;18.13;;;;;;;7.98;56.62;98900.25;114709;1193;64356;-86
2021/03/27 04:31:01;;;;;;;39.10;18.00;;;;;;;7.96;57.02;98902.17;114588;1193;64387;-89
2021/03/27 04:33:39;;;;;;;34.90;17.50;;;;;;;7.95;57.09;98900.44;114601;1193;64419;-84
2021/03/27 04:36:17;;;;;;;43.15;16.95;;;;;;;7.88;56.41;98899.12;114787;1193;64401;-82
2021/03/27 04:38:59;;;;;;;35.17;15.33;;;;;;;7.86;56.75;98897.42;115412;1191;64407;-84
2021/03/27 04:41:53;;;;;;;40.30;17.10;;;;;;;7.92;56.80;98890.01;114568;1191;64468;-86
2021/03/27 04:44:30;;;;;;;33.80;17.25;;;;;;;7.99;56.78;98894.83;114766;1193;64382;-83
2021/03/27 04:47:05;;;;;;;41.80;17.63;;;;;;;8.09;57.04;98897.77;114559;1192;64372;-83
2021/03/27 04:49:40;;;;;;;;;;;;;;;8.18;57.08;98896.31;114602;1200;64318;-83
2021/03/27 04:52:29;;;;;;;34.20;16.10;;;;;;;8.19;56.58;98892.69;114519;1193;64484;-86
2021/03/27 04:55:12;;;;;;;39.55;16.70;;;;;;;8.16;56.72;98906.20;114625;1193;64417;-85
2021/03/27 04:57:47;;;;;;;36.35;16.25;;;;;;;8.14;57.05;98906.28;114910;1193;64270;-86
2021/03/27 05:00:29;;;;;;;33.37;16.23;;;;;;;8.16;57.13;98900.88;114560;1193;64301;-83
2021/03/27 05:03:21;;;;;;;33.05;16.35;;;;;;;8.21;57.22;98906.77;114669;1193;64346;-84
2021/03/27 05:05:56;;;;;;;37.00;16.75;;;;;;;8.29;56.49;98907.11;114683;1193;64794;-89
2021/03/27 05:08:57;;;;;;;38.03;16.35;;;;;;;8.41;56.69;98902.84;115431;1192;64359;-83
2021/03/27 05:11:52;;;;;;;35.53;17.00;;;;;;;8.44;56.63;98894.64;114621;1193;64336;-84
2021/03/27 05:14:29;;;;;;;42.23;17.77;;;;;;;8.43;56.77;98892.94;114620;1192;64365;-86
2021/03/27 05:17:26;;;;;;;45.63;18.33;;;;;;;8.41;56.41;98892.19;115012;1193;64324;-86
2021/03/27 05:20:18;;;;;;;44.50;18.57;;;;;;;8.39;56.44;98889.61;114965;1193;64496;-85
2021/03/27 05:23:15;;;;;;;52.15;18.95;;;;;;;8.41;56.79;98889.53;114520;1193;64369;-84
2021/03/27 05:25:45;;;;;;;48.70;19.00;;;;;;;8.54;56.89;98888.61;114924;1192;64286;-84
2021/03/27 05:28:34;;;;;;;45.07;19.43;;;;;;;8.68;56.73;98884.17;114641;1193;64420;-83
2021/03/27 05:31:19;;;;;;;43.63;17.93;;;;;;;8.82;56.65;98886.75;115273;1193;64366;-84
2021/03/27 05:34:07;;;;;;;35.50;17.10;;;;;;;8.93;56.40;98892.21;114552;1193;64301;-84
2021/03/27 05:37:00;;;;;;;36.73;17.17;;;;;;;9.06;56.64;98887.75;114990;1192;64285;-82
2021/03/27 05:39:35;;;;;;;48.80;17.80;;;;;;;9.21;56.29;98883.17;114824;1193;64327;-84
2021/03/27 05:42:10;;;;;;;44.65;17.55;;;;;;;9.35;56.24;98887.53;114455;1193;64534;-84
2021/03/27 05:45:15;;;;;;;43.97;16.80;;;;;;;9.53;56.24;98886.25;114523;1193;64400;-83
2021/03/27 05:48:06;;;;;;;32.70;16.40;;;;;;;9.81;55.92;98882.50;114918;1193;64365;-85
2021/03/27 05:50:39;;;;;;;36.57;16.87;;;;;;;10.01;55.81;98886.39;114532;1193;64282;-84
2021/03/27 05:53:34;;;;;;;33.67;16.23;;;;;;;10.05;55.49;98884.34;114651;1193;64352;-83
2021/03/27 05:56:23;;;;;;;37.97;16.20;;;;;;;10.21;55.46;98874.26;114562;1193;64417;-83
2021/03/27 05:59:31;;;;;;;40.30;16.75;;;;;;;10.46;55.86;98873.33;115249;1193;64333;-87
2021/03/27 06:02:22;;;;;;;34.60;17.37;;;;;;;10.64;55.25;98876.45;114529;1193;64503;-85
2021/03/27 06:05:14;;;;;;;34.40;16.13;;;;;;;10.75;55.48;98869.34;114590;1192;64241;-86
2021/03/27 06:08:09;;;;;;;32.93;15.80;;;;;;;10.83;55.63;98876.77;114917;1193;64336;-86
2021/03/27 06:10:44;;;;;;;30.90;15.75;;;;;;;10.96;55.33;98866.84;114693;1193;64391;-82
2021/03/27 06:13:13;;;;;;;;;;;;;;;11.04;55.21;98864.42;114651;1199;64295;-83
2021/03/27 06:15:43;;;;;;;37.00;17.93;;;;;;;11.03;55.16;98861.88;114922;1193;64503;-86
2021/03/27 06:18:27;;;;;;;49.70;18.70;;;;;;;11.03;55.52;98861.88;114603;1193;64292;-86
2021/03/27 06:21:15;;;;;;;51.50;18.97;;;;;;;11.06;55.63;98856.28;114945;1192;64729;-87
2021/03/27 06:23:45;;;;;;;33.47;16.50;;;;;;;11.12;55.42;98849.61;115122;1193;64391;-85
2021/03/27 06:26:49;;;;;;;32.07;16.80;;;;;;;11.15;55.68;98850.24;114680;1192;64464;-84
2021/03/27 06:29:45;;;;;;;36.53;15.67;;;;;;;11.25;55.65;98845.02;114955;1193;64439;-84
2021/03/27 06:32:39;;;;;;;39.60;16.43;;;;;;;11.39;55.74;98839.45;114972;1192;64454;-84
2021/03/27 06:35:15;;;;;;;34.53;16.43;;;;;;;11.59;55.31;98828.02;114703;1192;64388;-83
2021/03/27 06:38:14;;;;;;;30.37;16.13;;;;;;;11.77;55.42;98825.70;114989;1192;64336;-87
2021/03/27 06:41:19;;;;;;;39.63;17.87;;;;;;;11.92;55.34;98818.28;114531;1193;64390;-83
2021/03/27 06:44:11;;;;;;;30.90;16.43;;;;;;;11.98;55.18;98817.78;114928;1193;64538;-88
2021/03/27 06:47:10;;;;;;;33.85;17.70;;;;;;;12.00;55.27;98817.66;114514;1193;64436;-85
2021/03/27 06:50:05;;;;;;;37.60;19.43;;;;;;;12.01;55.35;98811.32;114486;1193;64401;-89
2021/03/27 06:52:38;;;;;;;45.70;21.73;;;;;;;12.04;55.32;98819.96;114816;1193;64532;-84
2021/03/27 06:55:37;;;;;;;34.80;18.40;;;;;;;12.11;55.38;98822.98;114641;1193;64455;-84
2021/03/27 06:58:22;;;;;;;38.45;17.90;;;;;;;12.21;55.40;98823.06;114588;1193;64861;-83
2021/03/27 07:01:07;;;;;;;34.05;16.73;;;;;;;12.28;55.09;98833.16;114555;1193;64295;-82
2021/03/27 07:04:05;;;;;;;33.63;17.07;;;;;;;12.39;55.03;98837.61;114765;1193;64343;-85
2021/03/27 07:06:59;;;;;;;34.47;16.40;;;;;;;12.49;54.63;98848.42;114573;1193;64483;-84
2021/03/27 07:10:03;;;;;;;36.45;15.90;;;;;;;12.62;54.88;98849.95;114540;1193;64352;-89
2021/03/27 07:13:01;;;;;;;32.07;14.47;;;;;;;12.76;54.80;98851.46;114709;1193;64468;-84
2021/03/27 07:15:40;;;;;;;28.80;14.60;;;;;;;12.96;54.50;98857.81;114667;1193;64302;-90
2021/03/27 07:18:35;;;;;;;29.73;15.03;;;;;;;13.13;54.13;98865.27;114749;1193;64486;-82
2021/03/27 07:21:30;;;;;;;38.80;18.17;;;;;;;13.28;54.26;98862.28;115158;1193;64353;-84
2021/03/27 07:24:30;;;;;;;33.80;16.70;;;;;;;13.47;53.48;98849.81;114649;1193;64411;-84
2021/03/27 07:27:17;;;;;;;32.57;15.13;;;;;;;13.64;54.10;98855.55;114521;1192;64442;-87
2021/03/27 07:30:10;;;;;;;31.33;14.67;;;;;;;13.78;53.74;98860.55;114588;1193;64375;-84
2021/03/27 07:32:39;;;;;;;28.87;15.03;;;;;;;13.86;53.49;98854.50;114527;1193;64439;-88
2021/03/27 07:35:37;;;;;;;32.60;15.25;;;;;;;13.86;53.56;98851.81;114884;1192;64292;-82
2021/03/27 07:38:29;;;;;;;41.15;16.55;;;;;;;13.94;53.58;98868.11;114667;1192;64404;-83
2021/03/27 07:41:01;;;;;;;39.03;16.80;;;;;;;13.98;53.28;98867.67;114907;1193;64417;-82
2021/03/27 07:44:13;;;;;;;45.97;16.47;;;;;;;13.96;53.07;98875.03;114708;1193;64650;-82
2021/03/27 07:47:01;;;;;;;39.50;16.30;;;;;;;13.96;52.86;98863.44;114585;1193;64375;-82
2021/03/27 07:49:47;;;;;;;29.90;15.97;;;;;;;13.95;52.74;98865.28;115038;1192;64356;-84
2021/03/27 07:52:36;;;;;;;35.37;15.23;;;;;;;13.94;52.97;98881.53;114934;1193;64395;-83
2021/03/27 07:55:28;;;;;;;37.63;15.87;;;;;;;14.02;52.52;98873.63;114337;1193;64285;-90
2021/03/27 07:58:37;;;;;;;29.37;15.67;;;;;;;14.11;52.61;98866.58;114473;1193;64390;-83
2021/03/27 08:01:41;;;;;;;31.43;16.97;;;;;;;14.14;52.18;98875.23;114493;1193;64362;-83
2021/03/27 08:04:41;;;;;;;48.73;22.73;;;;;;;14.22;52.51;98878.06;114662;1193;64343;-87
2021/03/27 08:07:27;;;;;;;38.90;20.80;;;;;;;14.43;51.97;98886.02;114328;1196;64547;-83
2021/03/27 08:10:18;;;;;;;43.53;19.73;;;;;;;14.70;52.35;98885.39;114094;1196;64663;-81
2021/03/27 08:12:57;;;;;;;30.90;16.35;;;;;;;15.00;51.93;98883.53;114511;1196;64298;-87
2021/03/27 08:15:38;;;;;;;29.25;15.90;;;;;;;15.32;51.32;98892.12;114162;1196;64812;-86
2021/03/27 08:18:41;;;;;;;45.37;16.20;;;;;;;15.52;51.87;98892.07;114233;1195;64391;-82
2021/03/27 08:21:27;;;;;;;30.03;15.13;;;;;;;15.71;51.70;98908.20;114058;1196;64397;-87
2021/03/27 08:24:01;;;;;;;30.50;15.88;;;;;;;15.86;51.02;98906.75;114127;1196;64417;-84
2021/03/27 08:26:56;;;;;;;36.23;16.80;;;;;;;15.98;51.15;98909.26;114814;1196;64359;-85
2021/03/27 08:29:42;;;;;;;27.73;14.80;;;;;;;16.38;50.83;98904.36;114117;1196;64334;-88
2021/03/27 08:32:37;;;;;;;27.27;15.27;;;;;;;16.75;51.04;98904.28;114115;1196;64480;-89
2021/03/27 08:35:15;;;;;;;30.67;14.60;;;;;;;16.97;51.23;98900.27;114121;1196;64893;-88
2021/03/27 08:38:11;;;;;;;36.43;15.30;;;;;;;17.30;51.61;98903.23;114315;1196;64448;-89
2021/03/27 08:41:02;;;;;;;32.50;14.70;;;;;;;17.37;50.66;98904.33;114384;1196;64493;-86
2021/03/27 08:43:51;;;;;;;43.50;13.17;;;;;;;16.84;49.97;98913.30;114326;1196;64375;-87
2021/03/27 08:46:54;;;;;;;39.90;17.30;;;;;;;16.52;50.62;98908.38;114431;1192;64317;-85
2021/03/27 08:49:27;;;;;;;41.77;18.57;;;;;;;16.48;50.77;98918.64;115039;1193;64416;-89
2021/03/27 08:52:22;;;;;;;28.97;15.80;;;;;;;16.42;49.35;98918.39;114740;1192;64336;-87
2021/03/27 08:55:05;;;;;;;34.48;16.45;;;;;;;16.36;50.42;98922.53;114466;1196;64445;-85
2021/03/27 08:58:03;;;;;;;29.55;14.10;;;;;;;16.28;50.23;98919.72;114839;1196;64456;-86
2021/03/27 09:00:58;;;;;;;27.00;14.73;;;;;;;16.36;50.60;98925.23;114502;1196;64343;-88
2021/03/27 09:03:56;;;;;;;27.13;14.67;;;;;;;16.31;50.30;98919.44;114205;1199;64950;-88
2021/03/27 09:06:31;;;;;;;25.07;13.87;;;;;;;16.29;50.25;98932.22;114169;1199;64452;-85
2021/03/27 09:09:16;;;;;;;;;;;;;;;16.27;50.14;98936.05;114238;1203;64333;-86
2021/03/27 09:12:03;;;;;;;24.90;13.40;;;;;;;16.21;50.45;98937.48;114101;1200;64369;-88
2021/03/27 09:15:13;;;;;;;22.10;13.80;;;;;;;16.13;50.24;98938.23;114226;1199;64385;-88
2021/03/27 09:18:21;;;;;;;30.30;15.60;;;;;;;16.10;50.68;98948.48;114001;1199;64355;-88
2021/03/27 09:21:05;;;;;;;29.10;14.60;;;;;;;16.09;50.29;98949.45;114480;1198;64420;-86
2021/03/27 09:23:40;;;;;;;27.30;16.20;;;;;;;16.02;50.42;98954.58;113941;1200;64451;-87
2021/03/27 09:26:25;;;;;;;32.30;17.23;;;;;;;15.97;50.59;98964.97;113889;1199;64557;-89
2021/03/27 09:29:47;;;;;;;28.45;13.65;;;;;;;15.87;50.69;98973.06;113848;1200;64493;-88
2021/03/27 09:32:29;;;;;;;27.00;14.20;;;;;;;15.84;50.12;98967.98;113815;1199;64379;-88
2021/03/27 09:35:26;;;;;;;33.30;13.25;;;;;;;15.82;50.74;98974.49;113803;1200;64529;-89
2021/03/27 09:38:18;;;;;;;43.10;14.60;;;;;;;15.66;50.30;98967.88;113943;1199;64439;-87
2021/03/27 09:41:21;;;;;;;22.10;12.60;;;;;;;15.61;50.37;98977.34;114160;1196;64366;-89
2021/03/27 09:44:08;;;;;;;27.75;13.40;;;;;;;15.54;50.17;98987.00;114077;1194;64457;-88
2021/03/27 09:47:07;;;;;;;24.20;13.07;;;;;;;15.45;50.13;98995.91;114287;1196;64481;-88
2021/03/27 09:50:29;;;;;;;33.15;15.30;;;;;;;15.26;50.12;98994.92;114034;1199;64403;-86
2021/03/27 09:53:16;;;;;;;25.25;13.55;;;;;;;15.08;49.17;98996.64;113755;1203;64560;-87
2021/03/27 09:56:21;;;;;;;37.10;13.70;;;;;;;14.99;48.09;99010.91;113841;1202;64407;-90
2021/03/27 09:59:06;;;;;;;23.60;12.30;;;;;;;14.83;49.32;99023.07;113775;1203;64432;-85
2021/03/27 10:01:46;;;;;;;22.40;8.17;;;;;;;14.76;50.10;99034.48;113827;1203;64537;-88
2021/03/27 10:04:45;;;;;;;22.30;5.45;;;;;;;14.44;49.27;99048.06;113841;1203;64387;-86
2021/03/27 10:07:27;;;;;;;9.90;5.00;;;;;;;13.85;49.62;99046.91;113742;1200;64385;-86
2021/03/27 10:10:36;;;;;;;6.65;3.95;;;;;;;13.40;50.07;99046.30;113884;1197;64448;-88
2021/03/27 10:13:19;;;;;;;7.20;4.30;;;;;;;12.93;50.70;99078.72;114656;1198;64372;-84
2021/03/27 10:15:55;;;;;;;9.85;5.05;;;;;;;12.64;51.66;99082.89;113945;1200;64452;-90
2021/03/27 10:18:41;;;;;;;5.67;3.80;;;;;;;12.23;52.07;99100.42;114254;1199;64388;-87
2021/03/27 10:21:35;;;;;;;6.63;4.33;;;;;;;11.96;51.89;99091.84;114625;1198;64548;-86
2021/03/27 10:24:24;;;;;;;4.97;3.00;;;;;;;11.81;52.81;99089.38;114067;1196;64436;-88
2021/03/27 10:27:16;;;;;;;4.90;3.25;;;;;;;11.66;52.65;99106.58;114359;1193;64362;-89
2021/03/27 10:30:03;;;;;;;5.43;3.57;;;;;;;11.49;52.57;99115.86;114424;1192;64359;-89
2021/03/27 10:32:30;;;;;;;12.25;3.80;;;;;;;11.40;53.10;99111.21;114362;1193;64334;-87
2021/03/27 10:35:34;;;;;;;8.85;4.65;;;;;;;11.34;53.06;99117.86;114432;1193;64397;-85
2021/03/27 10:41:39;;;;;;;6.77;4.20;;;;;;;11.98;53.14;99117.53;114947;1193;64292;-85
2021/03/27 10:44:10;;;;;;;6.30;4.40;;;;;;;12.59;52.80;99126.11;114627;1192;64359;-86
2021/03/27 10:46:56;;;;;;;6.85;4.25;;;;;;;12.84;52.31;99124.16;114445;1193;64295;-89
2021/03/27 10:49:49;;;;;;;6.87;4.43;;;;;;;12.92;52.39;99121.73;114718;1192;64388;-87
2021/03/27 10:52:34;;;;;;;8.15;4.40;;;;;;;13.13;52.23;99109.27;114852;1193;64399;-83
2021/03/27 10:55:07;;;;;;;10.57;5.43;;;;;;;13.81;51.89;99106.38;114336;1193;64359;-85
2021/03/27 10:57:58;;;;;;;6.53;4.60;;;;;;;14.34;51.89;99110.67;114328;1193;64358;-87
2021/03/27 11:00:52;;;;;;;9.47;6.30;;;;;;;14.83;50.87;99111.79;114377;1192;64366;-87
2021/03/27 11:03:58;;;;;;;8.77;6.27;;;;;;;15.29;50.47;99096.05;115133;1193;64331;-88
2021/03/27 11:07:07;;;;;;;9.97;5.50;;;;;;;14.95;50.02;99082.96;115274;1193;64401;-89
2021/03/27 11:09:37;;;;;;;6.50;4.40;;;;;;;14.92;50.71;99098.50;114408;1193;64363;-87
2021/03/27 11:12:15;;;;;;;6.40;4.00;;;;;;;14.77;51.04;99098.89;114400;1193;64426;-89
2021/03/27 11:14:48;;;;;;;5.85;4.10;;;;;;;14.57;50.52;99110.55;114341;1193;64358;-87
2021/03/27 11:17:30;;;;;;;5.60;4.10;;;;;;;14.46;50.84;99110.60;114386;1193;64426;-88
2021/03/27 11:20:15;;;;;;;6.67;3.17;;;;;;;14.60;50.29;99102.21;114293;1192;64378;-91
2021/03/27 11:23:00;;;;;;;5.33;3.43;;;;;;;14.67;50.66;99116.80;114466;1192;64359;-86
2021/03/27 11:25:51;;;;;;;4.13;2.83;;;;;;;14.65;49.88;99102.66;114357;1193;64429;-86
2021/03/27 11:28:39;;;;;;;4.57;2.93;;;;;;;14.37;49.91;99125.66;114883;1193;64448;-87
2021/03/27 11:31:38;;;;;;;4.80;3.30;;;;;;;14.33;50.11;99129.63;114739;1193;65827;-87
2021/03/27 11:34:34;;;;;;;5.05;3.70;;;;;;;14.49;49.67;99142.59;114975;1192;63786;-85
2021/03/27 11:37:16;;;;;;;5.30;3.50;;;;;;;14.55;49.99;99140.23;114490;1193;64343;-89
2021/03/27 11:39:55;;;;;;;4.10;3.27;;;;;;;14.70;49.61;99142.58;114342;1193;64454;-88
2021/03/27 11:42:56;;;;;;;5.93;3.97;;;;;;;14.55;49.36;99144.75;114331;1193;64487;-87
2021/03/27 11:45:35;;;;;;;8.63;4.37;;;;;;;14.33;49.75;99153.80;114337;1193;64476;-86
2021/03/27 11:48:19;;;;;;;7.90;4.07;;;;;;;14.15;50.02;99145.48;115083;1192;64458;-85
2021/03/27 11:51:10;;;;;;;8.87;4.97;;;;;;;14.16;50.26;99165.98;114441;1193;64371;-86
2021/03/27 11:54:14;;;;;;;11.87;4.90;;;;;;;13.82;49.57;99161.77;114390;1193;64337;-91
2021/03/27 11:57:22;;;;;;;7.77;5.33;;;;;;;13.36;50.26;99177.16;114403;1193;64295;-88
2021/03/27 12:03:30;;;;;;;15.27;5.43;;;;;;;12.25;51.29;99248.41;114491;1193;64330;-85
2021/03/27 12:06:28;;;;;;;19.93;9.27;;;;;;;11.13;51.64;99287.81;114591;1193;64353;-85
2021/03/27 12:09:18;;;;;;;20.85;7.40;;;;;;;10.20;53.18;99303.08;114358;1193;64832;-89
2021/03/27 12:11:54;;;;;;;9.40;4.77;;;;;;;9.59;53.54;99322.22;114412;1193;64355;-88
2021/03/27 12:14:23;;;;;;;8.33;3.20;;;;;;;9.14;54.15;99329.48;114532;1193;64298;-88
2021/03/27 12:17:05;;;;;;;7.67;4.97;;;;;;;8.71;55.06;99339.23;114387;1193;64455;-91
2021/03/27 12:19:50;;;;;;;4.97;3.67;;;;;;;8.31;55.58;99355.72;114295;1193;64448;-86
2021/03/27 12:22:29;;;;;;;4.87;2.60;;;;;;;8.08;54.86;99374.82;114365;1192;64352;-87
2021/03/27 12:25:28;;;;;;;4.27;2.07;;;;;;;7.91;56.05;99377.56;114418;1192;64356;-87
2021/03/27 12:28:31;;;;;;;2.57;2.07;;;;;;;7.71;57.30;99386.66;114365;1193;64385;-89
2021/03/27 12:31:17;;;;;;;3.50;1.90;;;;;;;7.65;56.81;99401.13;114428;1193;64448;-87
2021/03/27 12:34:01;;;;;;;3.55;2.20;;;;;;;7.59;55.75;99404.13;114395;1193;64378;-87
2021/03/27 12:37:01;;;;;;;6.53;3.30;;;;;;;7.41;56.76;99429.88;114715;1193;64359;-89
2021/03/27 12:39:31;;;;;;;5.85;3.05;;;;;;;7.24;56.90;99419.28;114246;1196;64412;-88
2021/03/27 12:42:04;;;;;;;2.63;1.90;;;;;;;7.12;56.53;99428.74;114132;1196;64454;-90
2021/03/27 12:44:38;;;;;;;4.53;2.50;;;;;;;6.98;57.76;99436.57;114208;1196;64519;-88
2021/03/27 12:47:31;;;;;;;5.50;2.70;;;;;;;6.83;58.67;99419.64;114116;1195;64359;-85
2021/03/27 12:50:34;;;;;;;5.30;2.95;;;;;;;6.77;58.59;99415.50;114098;1196;64343;-91
2021/03/27 12:53:31;;;;;;;8.40;2.90;;;;;;;6.76;57.64;99424.41;114176;1196;64583;-86